createdAt,value
2018-05-19T00:01:15.532Z,91.00
2018-05-19T00:03:50.804Z,90.80
2018-05-19T00:06:26.044Z,91.00
2018-05-19T00:09:01.382Z,91.80
2018-05-19T00:11:36.488Z,91.80
2018-05-19T00:14:12.543Z,92.20
2018-05-19T00:16:47.637Z,92.30
2018-05-19T00:19:22.882Z,92.70
2018-05-19T00:21:58.220Z,92.80
2018-05-19T00:24:34.288Z,92.90
2018-05-19T00:27:10.247Z,93.00
2018-05-19T00:29:46.178Z,94.50
2018-05-19T00:32:22.120Z,94.40
2018-05-19T00:34:58.076Z,94.60
2018-05-19T00:37:33.197Z,94.40
2018-05-19T00:40:08.322Z,94.60
2018-05-19T00:42:43.588Z,94.80
2018-05-19T00:45:18.818Z,94.70
2018-05-19T00:47:54.730Z,95.00
2018-05-19T00:50:29.891Z,94.90
2018-05-19T00:53:05.167Z,95.20
2018-05-19T00:55:40.534Z,95.10
2018-05-19T00:58:15.867Z,95.30
2018-05-19T01:00:51.193Z,96.00
2018-05-19T01:03:26.458Z,96.10
2018-05-19T01:06:01.781Z,96.40
2018-05-19T01:08:37.102Z,96.30
2018-05-19T01:11:12.379Z,96.40
2018-05-19T01:13:47.495Z,96.60
2018-05-19T01:16:22.709Z,96.80
2018-05-19T01:18:57.943Z,96.60
2018-05-19T01:21:33.235Z,96.80
2018-05-19T01:24:09.388Z,97.20
2018-05-19T01:26:44.582Z,97.20
2018-05-19T01:29:19.859Z,97.20
2018-05-19T01:31:55.099Z,98.00
2018-05-19T01:34:30.376Z,98.00
2018-05-19T01:37:05.504Z,98.30
2018-05-19T01:39:41.442Z,98.20
2018-05-19T01:42:17.422Z,98.10
2018-05-19T01:44:52.524Z,98.10
2018-05-19T01:47:27.744Z,98.10
2018-05-19T01:50:03.604Z,98.40
2018-05-19T01:52:38.743Z,98.50
2018-05-19T01:55:13.981Z,98.70
2018-05-19T01:57:49.201Z,99.10
2018-05-19T02:00:24.436Z,98.80
2018-05-19T02:02:59.688Z,98.90
2018-05-19T02:05:34.929Z,99.20
2018-05-19T02:08:11.042Z,99.60
2018-05-19T02:10:46.116Z,99.40
2018-05-19T02:13:21.334Z,99.50
2018-05-19T02:15:56.400Z,99.70
2018-05-19T02:18:32.439Z,99.70
2018-05-19T02:21:08.411Z,99.70
2018-05-19T02:23:43.655Z,99.70
2018-05-19T02:26:18.924Z,99.60
2018-05-19T02:28:54.898Z,99.70
2018-05-19T02:31:29.996Z,99.70
2018-05-19T02:34:05.268Z,99.90
2018-05-19T02:36:40.481Z,99.90
2018-05-19T02:39:15.734Z,99.90
2018-05-19T02:41:50.975Z,99.90
2018-05-19T02:44:26.193Z,99.90
2018-05-19T02:47:02.087Z,99.90
2018-05-19T02:49:37.203Z,99.90
2018-05-19T02:52:12.344Z,99.90
2018-05-19T02:54:47.595Z,99.90
2018-05-19T02:57:22.871Z,99.90
2018-05-19T02:59:58.080Z,99.90
2018-05-19T03:02:33.637Z,99.90
2018-05-19T03:05:08.903Z,99.90
2018-05-19T03:07:44.147Z,99.90
2018-05-19T03:10:19.412Z,99.90
2018-05-19T03:12:54.762Z,99.90
2018-05-19T03:15:30.120Z,99.90
2018-05-19T03:18:05.525Z,99.90
2018-05-19T03:20:41.499Z,99.90
2018-05-19T03:23:16.677Z,99.90
2018-05-19T03:25:52.676Z,99.90
2018-05-19T03:28:27.837Z,99.90
2018-05-19T03:31:03.186Z,99.90
2018-05-19T03:33:38.451Z,99.90
2018-05-19T03:36:14.585Z,99.90
2018-05-19T03:38:49.738Z,99.90
2018-05-19T03:41:24.968Z,99.90
2018-05-19T03:44:00.079Z,99.90
2018-05-19T03:46:35.355Z,99.90
2018-05-19T03:49:10.487Z,99.90
2018-05-19T03:51:46.522Z,99.90
2018-05-19T03:54:21.824Z,99.90
2018-05-19T03:57:14.879Z,99.90
2018-05-19T04:00:07.757Z,99.90
2018-05-19T04:02:42.933Z,99.90
2018-05-19T04:05:18.209Z,99.90
2018-05-19T04:07:53.375Z,99.90
2018-05-19T04:10:28.497Z,99.90
2018-05-19T04:13:04.482Z,99.90
2018-05-19T04:15:39.666Z,99.90
2018-05-19T04:18:14.913Z,99.90
2018-05-19T04:20:50.196Z,99.90
2018-05-19T04:23:25.426Z,99.90
2018-05-19T04:26:00.762Z,99.90
2018-05-19T04:28:36.029Z,99.90
2018-05-19T04:31:11.224Z,99.90
2018-05-19T04:33:46.515Z,99.90
2018-05-19T04:36:21.809Z,99.90
2018-05-19T04:38:57.011Z,99.90
2018-05-19T04:41:32.276Z,99.90
2018-05-19T04:44:07.538Z,99.90
2018-05-19T04:46:42.942Z,99.90
2018-05-19T04:49:18.067Z,99.90
2018-05-19T04:51:53.180Z,99.90
2018-05-19T04:54:29.205Z,99.90
2018-05-19T04:57:05.120Z,99.90
2018-05-19T04:59:40.268Z,99.90
2018-05-19T05:02:15.539Z,99.90
2018-05-19T05:04:50.776Z,99.90
2018-05-19T05:07:26.012Z,99.90
2018-05-19T05:10:01.255Z,99.90
2018-05-19T05:12:37.117Z,99.90
2018-05-19T05:15:12.273Z,99.90
2018-05-19T05:17:48.115Z,98.90
2018-05-19T05:20:23.408Z,98.90
2018-05-19T05:22:59.330Z,98.30
2018-05-19T05:25:35.297Z,98.30
2018-05-19T05:28:10.462Z,98.40
2018-05-19T05:30:45.840Z,97.00
2018-05-19T05:33:21.104Z,96.60
2018-05-19T05:35:56.498Z,95.50
2018-05-19T05:38:31.632Z,93.10
2018-05-19T05:41:06.763Z,90.90
2018-05-19T05:43:41.868Z,89.00
2018-05-19T05:46:17.829Z,85.60
2018-05-19T05:48:53.040Z,85.60
2018-05-19T05:51:28.329Z,82.50
2018-05-19T05:54:03.453Z,80.70
2018-05-19T05:56:38.805Z,80.60
2018-05-19T05:59:14.123Z,82.00
2018-05-19T06:01:49.306Z,80.90
2018-05-19T06:04:24.606Z,80.30
2018-05-19T06:07:00.651Z,77.70
2018-05-19T06:09:35.778Z,77.80
2018-05-19T06:12:11.120Z,76.50
2018-05-19T06:14:46.330Z,75.10
2018-05-19T06:17:21.470Z,73.40
2018-05-19T06:19:56.784Z,68.00
2018-05-19T06:22:31.946Z,67.20
2018-05-19T06:25:07.234Z,66.40
2018-05-19T06:27:42.469Z,67.00
2018-05-19T06:30:17.792Z,65.60
2018-05-19T06:32:52.958Z,63.70
2018-05-19T06:35:28.173Z,63.90
2018-05-19T06:38:03.334Z,61.80
2018-05-19T06:40:39.307Z,61.10
2018-05-19T06:43:15.364Z,60.50
2018-05-19T06:45:50.469Z,60.50
2018-05-19T06:48:25.720Z,59.40
2018-05-19T06:51:00.875Z,58.00
2018-05-19T06:53:36.808Z,56.60
2018-05-19T06:56:11.994Z,56.60
2018-05-19T06:58:48.142Z,56.90
2018-05-19T07:01:23.331Z,56.80
2018-05-19T07:03:58.606Z,53.90
2018-05-19T07:06:33.917Z,54.10
2018-05-19T07:09:09.020Z,54.50
2018-05-19T07:11:44.321Z,53.10
2018-05-19T07:14:19.505Z,53.60
2018-05-19T07:16:54.700Z,54.10
2018-05-19T07:19:30.617Z,53.00
2018-05-19T07:22:05.797Z,53.00
2018-05-19T07:24:41.077Z,51.60
2018-05-19T07:27:16.379Z,50.00
2018-05-19T07:29:51.600Z,48.80
2018-05-19T07:32:26.911Z,49.00
2018-05-19T07:35:02.309Z,48.90
2018-05-19T07:37:38.337Z,47.10
2018-05-19T07:40:13.655Z,46.50
2018-05-19T07:42:49.682Z,45.90
2018-05-19T07:45:24.841Z,45.90
2018-05-19T07:47:59.972Z,45.50
2018-05-19T07:50:35.071Z,45.00
2018-05-19T07:53:11.072Z,44.40
2018-05-19T07:55:46.310Z,44.30
2018-05-19T07:58:22.298Z,45.10
2018-05-19T08:00:58.320Z,45.30
2018-05-19T08:03:33.565Z,45.30
2018-05-19T08:06:08.813Z,43.60
2018-05-19T08:08:43.893Z,43.70
2018-05-19T08:11:18.980Z,42.90
2018-05-19T08:13:54.375Z,42.20
2018-05-19T08:16:30.229Z,42.20
2018-05-19T08:19:05.424Z,42.30
2018-05-19T08:21:40.570Z,41.90
2018-05-19T08:24:15.636Z,41.30
2018-05-19T08:26:51.592Z,40.90
2018-05-19T08:29:27.421Z,39.80
2018-05-19T08:32:03.290Z,39.40
2018-05-19T08:34:38.400Z,39.30
2018-05-19T08:37:13.660Z,38.60
2018-05-19T08:39:49.619Z,40.70
2018-05-19T08:42:24.832Z,40.70
2018-05-19T08:44:59.968Z,40.40
2018-05-19T08:47:35.087Z,39.60
2018-05-19T08:50:10.353Z,39.70
2018-05-19T08:52:45.633Z,40.20
2018-05-19T08:55:21.591Z,39.90
2018-05-19T08:57:57.542Z,40.20
2018-05-19T09:00:33.461Z,41.00
2018-05-19T09:03:08.755Z,41.00
2018-05-19T09:05:43.948Z,41.40
2018-05-19T09:08:19.126Z,41.10
2018-05-19T09:10:54.451Z,40.40
2018-05-19T09:13:30.395Z,39.50
2018-05-19T09:16:05.604Z,39.50
2018-05-19T09:18:40.804Z,40.00
2018-05-19T09:21:16.699Z,41.40
2018-05-19T09:23:52.590Z,40.80
2018-05-19T09:26:27.708Z,40.80
2018-05-19T09:29:03.049Z,38.80
2018-05-19T09:31:38.305Z,37.20
2018-05-19T09:34:14.284Z,36.20
2018-05-19T09:36:50.048Z,36.20
2018-05-19T09:39:25.996Z,34.50
2018-05-19T09:42:02.037Z,36.60
2018-05-19T09:44:37.385Z,36.10
2018-05-19T09:47:13.386Z,35.50
2018-05-19T09:49:48.548Z,35.50
2018-05-19T09:52:23.815Z,37.00
2018-05-19T09:54:58.988Z,36.60
2018-05-19T09:57:34.913Z,37.10
2018-05-19T10:00:10.179Z,36.90
2018-05-19T10:02:45.329Z,38.10
2018-05-19T10:05:21.255Z,35.80
2018-05-19T10:07:56.576Z,35.70
2018-05-19T10:10:31.718Z,35.60
2018-05-19T10:13:06.836Z,34.90
2018-05-19T10:15:42.187Z,34.90
2018-05-19T10:18:17.496Z,34.10
2018-05-19T10:20:52.765Z,33.80
2018-05-19T10:23:28.038Z,33.80
2018-05-19T10:26:03.094Z,34.80
2018-05-19T10:28:38.429Z,34.40
2018-05-19T10:31:13.568Z,34.60
2018-05-19T10:33:48.859Z,34.10
2018-05-19T10:36:24.063Z,33.70
2018-05-19T10:38:59.419Z,33.90
2018-05-19T10:41:34.740Z,34.80
2018-05-19T10:44:10.001Z,34.40
2018-05-19T10:46:45.105Z,34.40
2018-05-19T10:49:20.409Z,33.70
2018-05-19T10:51:56.327Z,34.00
2018-05-19T10:54:31.671Z,33.90
2018-05-19T10:57:06.906Z,33.80
2018-05-19T10:59:42.125Z,33.30
2018-05-19T11:02:18.008Z,31.50
2018-05-19T11:04:53.271Z,31.40
2018-05-19T11:07:28.381Z,31.40
2018-05-19T11:10:03.649Z,30.90
2018-05-19T11:12:38.797Z,30.10
2018-05-19T11:15:14.139Z,31.10
2018-05-19T11:17:49.275Z,31.90
2018-05-19T11:20:25.236Z,31.30
2018-05-19T11:23:00.318Z,31.30
2018-05-19T11:25:35.707Z,32.90
2018-05-19T11:28:10.814Z,32.10
2018-05-19T11:30:46.089Z,32.80
2018-05-19T11:33:21.796Z,31.50
2018-05-19T11:35:57.080Z,32.20
2018-05-19T11:38:32.229Z,32.90
2018-05-19T11:41:07.295Z,33.30
2018-05-19T11:43:42.622Z,33.00
2018-05-19T11:46:17.805Z,32.30
2018-05-19T11:48:53.139Z,32.20
2018-05-19T11:51:28.370Z,30.90
2018-05-19T11:54:04.321Z,32.20
2018-05-19T11:56:39.606Z,32.20
2018-05-19T11:59:14.793Z,32.00
2018-05-19T12:01:50.069Z,33.20
2018-05-19T12:04:25.205Z,32.60
2018-05-19T12:07:01.050Z,31.00
2018-05-19T12:12:18.311Z,32.20
2018-05-19T12:14:54.267Z,30.90
2018-05-19T12:17:30.213Z,33.00
2018-05-19T12:20:05.386Z,32.80
2018-05-19T12:22:41.420Z,32.60
2018-05-19T12:25:17.270Z,32.70
2018-05-19T12:27:53.580Z,31.80
2018-05-19T12:30:28.677Z,31.80
2018-05-19T12:33:03.954Z,33.30
2018-05-19T12:35:39.118Z,32.20
2018-05-19T12:38:14.479Z,32.50
2018-05-19T12:40:49.725Z,32.50
2018-05-19T12:43:24.855Z,32.70
2018-05-19T12:46:00.825Z,31.40
2018-05-19T12:48:35.944Z,31.30
2018-05-19T12:51:12.008Z,32.30
2018-05-19T12:53:48.012Z,31.70
2018-05-19T12:56:23.253Z,31.60
2018-05-19T12:58:59.142Z,30.90
2018-05-19T13:01:34.278Z,30.90
2018-05-19T13:04:09.654Z,33.10
2018-05-19T13:06:44.844Z,32.30
2018-05-19T13:09:20.024Z,33.00
2018-05-19T13:11:55.296Z,31.90
2018-05-19T13:14:30.490Z,33.10
2018-05-19T13:17:06.321Z,32.00
2018-05-19T13:19:41.473Z,32.00
2018-05-19T13:22:19.776Z,32.60
2018-05-19T13:24:55.081Z,32.80
2018-05-19T13:27:30.979Z,32.80
2018-05-19T13:30:06.309Z,32.60
2018-05-19T13:32:42.304Z,34.10
2018-05-19T13:35:18.661Z,33.50
2018-05-19T13:37:53.813Z,33.50
2018-05-19T13:40:29.150Z,33.10
2018-05-19T13:43:04.277Z,32.30
2018-05-19T13:45:39.619Z,33.20
2018-05-19T13:48:14.866Z,32.40
2018-05-19T13:50:50.816Z,32.60
2018-05-19T13:53:26.769Z,33.80
2018-05-19T13:56:01.976Z,33.80
2018-05-19T13:58:37.213Z,33.50
2018-05-19T14:01:13.271Z,34.10
2018-05-19T14:03:48.347Z,34.10
2018-05-19T14:06:23.684Z,33.90
2018-05-19T14:08:58.892Z,33.10
2018-05-19T14:11:34.263Z,33.20
2018-05-19T14:14:09.480Z,34.50
2018-05-19T14:16:44.752Z,33.20
2018-05-19T14:19:19.937Z,32.90
2018-05-19T14:21:55.203Z,33.40
2018-05-19T14:24:30.442Z,33.20
2018-05-19T14:27:05.774Z,32.60
2018-05-19T14:29:41.124Z,33.40
2018-05-19T14:32:16.428Z,34.60
2018-05-19T14:34:51.704Z,34.20
2018-05-19T14:37:27.053Z,33.90
2018-05-19T14:40:02.391Z,33.00
2018-05-19T14:42:37.718Z,34.10
2018-05-19T14:45:13.022Z,34.50
2018-05-19T14:47:48.284Z,34.20
2018-05-19T14:50:24.544Z,34.60
2018-05-19T14:53:00.458Z,34.30
2018-05-19T14:55:35.466Z,33.60
2018-05-19T14:58:10.748Z,33.50
2018-05-19T15:00:45.993Z,35.20
2018-05-19T15:03:21.111Z,34.50
2018-05-19T15:05:56.205Z,33.60
2018-05-19T15:08:31.449Z,34.20
2018-05-19T15:11:06.677Z,35.10
2018-05-19T15:13:43.489Z,34.30
2018-05-19T15:16:18.569Z,34.60
2018-05-19T15:18:55.204Z,35.70
2018-05-19T15:21:30.430Z,35.70
2018-05-19T15:24:06.353Z,35.40
2018-05-19T15:26:41.512Z,35.40
2018-05-19T15:29:16.841Z,35.70
2018-05-19T15:31:52.119Z,36.30
2018-05-19T15:34:27.369Z,34.90
2018-05-19T15:37:02.731Z,36.30
2018-05-19T15:39:38.685Z,35.00
2018-05-19T15:42:13.980Z,35.00
2018-05-19T15:44:49.341Z,35.10
2018-05-19T15:47:24.473Z,35.30
2018-05-19T15:50:00.393Z,34.60
2018-05-19T15:52:36.388Z,35.80
2018-05-19T15:55:12.692Z,35.50
2018-05-19T15:57:48.023Z,35.40
2018-05-19T16:00:23.116Z,35.90
2018-05-19T16:02:59.169Z,34.60
2018-05-19T16:05:34.272Z,34.60
2018-05-19T16:08:09.596Z,35.40
2018-05-19T16:10:45.588Z,34.90
2018-05-19T16:13:21.537Z,35.80
2018-05-19T16:15:56.685Z,35.70
2018-05-19T16:18:31.793Z,36.30
2018-05-19T16:21:07.065Z,35.80
2018-05-19T16:23:42.222Z,35.50
2018-05-19T16:26:17.583Z,36.20
2018-05-19T16:28:52.690Z,36.20
2018-05-19T16:31:28.066Z,36.50
2018-05-19T16:34:03.138Z,36.20
2018-05-19T16:36:38.583Z,36.30
2018-05-19T16:39:14.453Z,36.10
2018-05-19T16:41:49.864Z,36.10
2018-05-19T16:44:25.130Z,36.00
2018-05-19T16:47:00.336Z,36.40
2018-05-19T16:49:35.652Z,36.10
2018-05-19T16:52:10.898Z,36.60
2018-05-19T16:54:46.005Z,36.90
2018-05-19T16:57:21.348Z,36.70
2018-05-19T16:59:56.574Z,37.10
2018-05-19T17:02:33.007Z,37.30
2018-05-19T17:05:08.292Z,38.30
2018-05-19T17:07:43.536Z,38.80
2018-05-19T17:10:18.799Z,39.10
2018-05-19T17:12:54.137Z,38.40
2018-05-19T17:15:29.269Z,38.40
2018-05-19T17:18:04.517Z,39.00
2018-05-19T17:20:39.726Z,39.20
2018-05-19T17:23:14.971Z,39.40
2018-05-19T17:25:50.093Z,38.80
2018-05-19T17:28:25.357Z,39.00
2018-05-19T17:31:00.601Z,39.30
2018-05-19T17:33:36.546Z,39.30
2018-05-19T17:36:11.642Z,39.30
2018-05-19T17:38:46.898Z,39.50
2018-05-19T17:41:23.604Z,40.00
2018-05-19T17:43:58.824Z,40.10
2018-05-19T17:46:34.082Z,40.20
2018-05-19T17:49:10.009Z,39.50
2018-05-19T17:51:45.947Z,39.50
2018-05-19T17:54:21.023Z,39.50
2018-05-19T17:56:56.993Z,40.10
2018-05-19T17:59:32.315Z,40.10
2018-05-19T18:02:07.661Z,40.60
2018-05-19T18:04:42.860Z,40.50
2018-05-19T18:07:18.381Z,40.80
2018-05-19T18:09:53.504Z,41.40
2018-05-19T18:12:28.782Z,41.60
2018-05-19T18:15:04.780Z,41.90
2018-05-19T18:17:39.908Z,41.90
2018-05-19T18:20:15.258Z,42.40
2018-05-19T18:22:50.493Z,42.80
2018-05-19T18:25:25.813Z,42.90
2018-05-19T18:28:01.091Z,43.30
2018-05-19T18:30:36.422Z,43.30
2018-05-19T18:33:11.758Z,43.70
2018-05-19T18:35:47.079Z,43.90
2018-05-19T18:38:22.370Z,44.30
2018-05-19T18:40:57.654Z,44.70
2018-05-19T18:43:32.968Z,44.60
2018-05-19T18:46:08.055Z,45.10
2018-05-19T18:48:43.315Z,45.40
2018-05-19T18:51:18.611Z,45.40
2018-05-19T18:53:53.885Z,45.80
2018-05-19T18:56:29.868Z,46.30
2018-05-19T18:59:05.019Z,46.20
2018-05-19T19:01:40.933Z,46.90
2018-05-19T19:04:16.028Z,46.90
2018-05-19T19:06:51.171Z,47.00
2018-05-19T19:09:27.057Z,47.80
2018-05-19T19:12:02.933Z,48.30
2018-05-19T19:14:38.088Z,48.30
2018-05-19T19:17:13.342Z,48.40
2018-05-19T19:19:48.608Z,48.70
2018-05-19T19:22:23.860Z,49.10
2018-05-19T19:24:59.724Z,49.70
2018-05-19T19:27:34.873Z,49.70
2018-05-19T19:30:10.130Z,50.40
2018-05-19T19:32:46.185Z,50.70
2018-05-19T19:35:22.152Z,50.40
2018-05-19T19:37:58.069Z,50.60
2018-05-19T19:40:34.113Z,51.00
2018-05-19T19:43:09.274Z,51.00
2018-05-19T19:45:44.512Z,51.00
2018-05-19T19:48:19.852Z,51.10
2018-05-19T19:50:55.152Z,51.30
2018-05-19T19:53:30.429Z,51.50
2018-05-19T19:56:05.640Z,51.50
2018-05-19T19:58:41.556Z,51.80
2018-05-19T20:01:16.846Z,51.80
2018-05-19T20:03:52.122Z,52.40
2018-05-19T20:06:27.443Z,52.20
2018-05-19T20:09:02.752Z,52.30
2018-05-19T20:11:37.890Z,53.50
2018-05-19T20:14:13.186Z,53.10
2018-05-19T20:16:49.025Z,53.70
2018-05-19T20:19:24.163Z,53.60
2018-05-19T20:22:00.244Z,54.60
2018-05-19T20:24:35.369Z,54.50
2018-05-19T20:27:10.704Z,54.30
2018-05-19T20:29:46.576Z,54.40
2018-05-19T20:32:22.490Z,54.50
2018-05-19T20:34:58.494Z,54.30
2018-05-19T20:37:33.855Z,54.30
2018-05-19T20:40:08.964Z,54.30
2018-05-19T20:42:44.045Z,54.70
2018-05-19T20:45:19.956Z,55.00
2018-05-19T20:47:55.085Z,54.70
2018-05-19T20:50:30.407Z,54.90
2018-05-19T20:53:05.762Z,54.90
2018-05-19T20:55:40.969Z,55.10
2018-05-19T20:58:16.861Z,55.40
2018-05-19T21:00:51.964Z,55.40
2018-05-19T21:03:27.151Z,55.70
2018-05-19T21:06:02.371Z,55.60
2018-05-19T21:08:37.739Z,55.80
2018-05-19T21:11:12.909Z,56.20
2018-05-19T21:13:48.178Z,56.50
2018-05-19T21:16:23.474Z,56.80
2018-05-19T21:18:59.499Z,56.80
2018-05-19T21:21:34.676Z,56.80
2018-05-19T21:24:10.684Z,57.10
2018-05-19T21:26:45.780Z,56.50
2018-05-19T21:29:21.111Z,57.00
2018-05-19T21:31:57.040Z,57.20
2018-05-19T21:34:32.964Z,57.40
2018-05-19T21:37:08.964Z,57.50
2018-05-19T21:39:44.092Z,57.60
2018-05-19T21:42:19.265Z,57.30
2018-05-19T21:44:54.503Z,57.40
2018-05-19T21:47:29.743Z,57.40
2018-05-19T21:50:05.658Z,57.70
2018-05-19T21:52:41.576Z,57.60
2018-05-19T21:55:16.793Z,57.60
2018-05-19T21:57:51.885Z,57.60
2018-05-19T22:00:27.063Z,57.80
2018-05-19T22:03:02.970Z,58.20
2018-05-19T22:05:38.981Z,58.40
2018-05-19T22:08:14.235Z,58.30
2018-05-19T22:10:50.216Z,58.40
2018-05-19T22:13:26.151Z,58.40
2018-05-19T22:16:01.257Z,58.40
2018-05-19T22:18:37.233Z,59.20
2018-05-19T22:21:13.251Z,59.00
2018-05-19T22:23:48.378Z,59.00
2018-05-19T22:26:23.689Z,59.30
2018-05-19T22:28:58.942Z,59.30
2018-05-19T22:31:34.243Z,59.70
2018-05-19T22:34:09.495Z,59.80
2018-05-19T22:36:44.740Z,60.00
2018-05-19T22:39:20.061Z,60.40
2018-05-19T22:41:55.381Z,60.30
2018-05-19T22:44:30.823Z,60.70
2018-05-19T22:47:06.889Z,61.00
2018-05-19T22:49:42.085Z,61.00
2018-05-19T22:52:17.256Z,61.30
2018-05-19T22:54:52.560Z,61.60
2018-05-19T22:57:27.904Z,61.90
2018-05-19T23:00:03.872Z,61.80
2018-05-19T23:02:39.831Z,61.80
2018-05-19T23:05:14.977Z,61.80
2018-05-19T23:07:50.921Z,62.30
2018-05-19T23:10:26.871Z,62.50
2018-05-19T23:13:02.693Z,62.40
2018-05-19T23:15:38.570Z,62.80
2018-05-19T23:18:13.825Z,63.00
2018-05-19T23:20:49.854Z,62.90
2018-05-19T23:23:25.817Z,62.80
2018-05-19T23:26:01.105Z,62.80
2018-05-19T23:28:36.991Z,63.70
2018-05-19T23:31:12.988Z,63.40
2018-05-19T23:33:48.101Z,63.30
2018-05-19T23:36:23.287Z,63.50
2018-05-19T23:38:58.450Z,64.00
2018-05-19T23:41:33.758Z,64.00
2018-05-19T23:44:09.034Z,64.40
2018-05-19T23:46:44.296Z,64.70
2018-05-19T23:49:20.408Z,65.20
2018-05-19T23:51:55.566Z,65.20
2018-05-19T23:54:30.805Z,65.30
2018-05-19T23:57:05.966Z,66.40
2018-05-19T23:59:41.107Z,65.60
